createdAt,value
2022-09-29T00:00:02.590Z,21.4
2022-09-29T00:15:06.242Z,21.3
2022-09-29T00:45:03.328Z,21.3
2022-09-29T01:00:03.326Z,21.3
2022-09-29T01:15:02.511Z,21.2
2022-09-29T01:30:05.447Z,21.2
2022-09-29T01:45:06.450Z,21.2
2022-09-29T02:00:02.100Z,21.1
2022-09-29T02:15:02.530Z,21.1
2022-09-29T02:30:04.523Z,21
2022-09-29T02:45:02.061Z,21
2022-09-29T03:00:03.249Z,21
2022-09-29T03:15:04.539Z,21
2022-09-29T03:30:06.382Z,21
2022-09-29T04:00:06.393Z,20.9
2022-09-29T04:15:02.264Z,20.9
2022-09-29T04:30:02.380Z,20.9
2022-09-29T04:45:05.551Z,20.9
2022-09-29T05:00:02.476Z,20.9
2022-09-29T05:15:04.289Z,20.9
2022-09-29T05:30:02.486Z,20.9
2022-09-29T06:00:04.144Z,20.9
2022-09-29T06:15:02.165Z,20.9
2022-09-29T06:30:03.212Z,21
2022-09-29T06:45:05.375Z,21.1
2022-09-29T07:00:06.312Z,21.3
2022-09-29T07:15:03.224Z,21.5
2022-09-29T07:30:04.239Z,21.6
2022-09-29T07:45:03.498Z,21.8
2022-09-29T08:00:02.379Z,21.9
2022-09-29T08:30:05.350Z,22
2022-09-29T08:45:02.088Z,22
2022-09-29T09:00:02.482Z,22
2022-09-29T09:15:03.120Z,21.9
2022-09-29T09:30:02.251Z,21.8
2022-09-29T09:45:04.361Z,21.8
2022-09-29T10:00:06.206Z,21.8
2022-09-29T10:15:06.334Z,21.8
2022-09-29T10:30:03.308Z,21.9
2022-09-29T10:45:03.525Z,22
2022-09-29T11:00:03.502Z,22
2022-09-29T11:15:05.526Z,22.1
2022-09-29T11:30:04.274Z,22.2
2022-09-29T11:45:05.152Z,22.3
2022-09-29T12:00:02.280Z,22.3
2022-09-29T12:15:06.328Z,22.3
2022-09-29T12:30:03.133Z,22.2
2022-09-29T12:45:05.329Z,22.2
2022-09-29T13:00:04.107Z,22.1
2022-09-29T13:15:05.457Z,22.1
2022-09-29T13:30:06.116Z,22
2022-09-29T13:50:05.065Z,22
2022-09-29T14:05:03.372Z,22
2022-09-29T14:20:05.161Z,21.9
2022-09-29T14:35:04.432Z,21.9
2022-09-29T14:50:03.285Z,21.9
2022-09-29T15:05:03.438Z,21.9
2022-09-29T15:20:05.594Z,21.8
2022-09-29T15:35:05.526Z,21.8
2022-09-29T15:50:02.535Z,21.8
2022-09-29T16:05:06.057Z,21.8
2022-09-29T16:20:05.077Z,21.8
2022-09-29T16:35:02.257Z,21.8
2022-09-29T16:50:03.111Z,21.8
2022-09-29T17:20:05.370Z,22
2022-09-29T17:35:02.518Z,22.1
2022-09-29T17:50:05.575Z,22.1
2022-09-29T18:05:03.252Z,22.2
2022-09-29T18:20:03.218Z,22.2
2022-09-29T18:35:05.453Z,22.2
2022-09-29T18:50:05.168Z,22.2
2022-09-29T19:10:03.430Z,22.2
2022-09-29T19:25:04.505Z,22.1
2022-09-29T19:40:04.562Z,22.1
2022-09-29T19:55:04.625Z,22
2022-09-29T20:10:05.081Z,22
2022-09-29T20:25:04.726Z,21.9
2022-09-29T20:40:05.385Z,21.9
2022-09-29T20:55:06.278Z,21.8
2022-09-29T21:10:02.633Z,21.7
2022-09-29T21:25:05.521Z,21.6
2022-09-29T21:40:03.637Z,21.6
2022-09-29T21:55:03.349Z,21.5
2022-09-29T22:10:03.260Z,21.4
2022-09-29T22:25:06.485Z,21.4
2022-09-29T22:40:02.440Z,21.4
2022-09-29T22:55:04.132Z,21.4
2022-09-29T23:10:05.628Z,21.3
2022-09-29T23:25:05.379Z,21.3
2022-09-29T23:40:02.479Z,21.3
2022-09-29T23:55:02.205Z,21.3
